createdAt,value
2022-08-26T00:01:54.987Z,5.55
2022-08-26T00:04:25.446Z,5.82
2022-08-26T00:06:56.199Z,5.60
2022-08-26T00:09:26.422Z,6.10
2022-08-26T00:11:56.035Z,6.50
2022-08-26T00:14:31.021Z,6.47
2022-08-26T00:17:00.423Z,6.22
2022-08-26T00:19:29.405Z,6.22
2022-08-26T00:21:58.028Z,5.93
2022-08-26T00:24:26.828Z,6.47
2022-08-26T00:26:55.416Z,6.50
2022-08-26T00:29:25.516Z,6.10
2022-08-26T00:31:54.553Z,6.05
2022-08-26T00:34:23.241Z,6.88
2022-08-26T00:36:52.224Z,6.00
2022-08-26T00:39:21.320Z,6.22
2022-08-26T00:41:50.557Z,5.90
2022-08-26T00:44:20.382Z,6.05
2022-08-26T00:46:56.318Z,6.57
2022-08-26T00:49:34.959Z,6.53
2022-08-26T00:52:09.698Z,7.07
2022-08-26T00:54:46.970Z,5.45
2022-08-26T00:57:19.700Z,6.65
2022-08-26T00:59:56.805Z,7.18
2022-08-26T01:02:27.217Z,6.53
2022-08-26T01:05:05.813Z,6.45
2022-08-26T01:07:35.517Z,5.82
2022-08-26T01:10:11.513Z,6.57
2022-08-26T01:12:46.101Z,6.78
2022-08-26T01:15:21.618Z,6.53
2022-08-26T01:17:51.861Z,7.05
2022-08-26T01:20:32.743Z,7.18
2022-08-26T01:23:06.716Z,6.97
2022-08-26T01:25:44.894Z,7.30
2022-08-26T01:28:23.296Z,6.88
2022-08-26T01:30:54.364Z,7.15
2022-08-26T01:33:30.994Z,7.40
2022-08-26T01:36:11.014Z,7.82
2022-08-26T01:38:41.492Z,7.13
2022-08-26T01:41:19.597Z,7.32
2022-08-26T01:43:53.844Z,7.25
2022-08-26T01:46:25.615Z,6.40
2022-08-26T01:48:59.800Z,6.65
2022-08-26T01:51:30.207Z,6.63
2022-08-26T01:54:01.586Z,6.93
2022-08-26T01:56:33.309Z,6.28
2022-08-26T01:59:10.671Z,6.13
2022-08-26T02:01:40.032Z,6.00
2022-08-26T02:04:19.549Z,6.35
2022-08-26T02:06:50.283Z,6.28
2022-08-26T02:09:22.395Z,6.43
2022-08-26T02:11:51.967Z,6.22
2022-08-26T02:14:26.803Z,6.90
2022-08-26T02:16:56.626Z,6.63
2022-08-26T02:19:31.806Z,6.97
2022-08-26T02:22:06.479Z,6.32
2022-08-26T02:24:51.645Z,6.82
2022-08-26T02:27:32.514Z,6.25
2022-08-26T02:30:10.564Z,6.60
2022-08-26T02:32:40.165Z,6.57
2022-08-26T02:35:13.177Z,6.93
2022-08-26T02:37:47.010Z,6.82
2022-08-26T02:40:23.991Z,6.60
2022-08-26T02:42:55.969Z,6.72
2022-08-26T02:45:26.386Z,7.03
2022-08-26T02:47:58.178Z,7.95
2022-08-26T02:50:28.952Z,7.55
2022-08-26T02:52:57.700Z,6.60
2022-08-26T02:55:28.499Z,7.22
2022-08-26T02:57:57.246Z,7.10
2022-08-26T03:00:27.355Z,6.72
2022-08-26T03:02:56.651Z,6.65
2022-08-26T03:05:25.669Z,7.20
2022-08-26T03:07:54.357Z,7.15
2022-08-26T03:10:23.837Z,6.93
2022-08-26T03:12:56.014Z,6.95
2022-08-26T03:15:24.957Z,7.57
2022-08-26T03:17:53.775Z,7.00
2022-08-26T03:20:23.163Z,7.20
2022-08-26T03:22:53.477Z,7.13
2022-08-26T03:25:26.100Z,7.53
2022-08-26T03:27:56.138Z,6.85
2022-08-26T03:30:44.664Z,7.35
2022-08-26T03:33:15.612Z,7.32
2022-08-26T03:35:47.838Z,7.00
2022-08-26T03:38:20.576Z,7.20
2022-08-26T03:40:49.406Z,7.45
2022-08-26T03:43:22.451Z,7.82
2022-08-26T03:45:51.442Z,8.13
2022-08-26T03:48:21.241Z,7.93
2022-08-26T03:50:52.492Z,7.57
2022-08-26T03:53:22.038Z,8.70
2022-08-26T03:55:51.936Z,7.65
2022-08-26T03:58:24.308Z,8.25
2022-08-26T04:00:55.592Z,7.68
2022-08-26T04:03:38.878Z,7.45
2022-08-26T04:06:08.665Z,8.05
2022-08-26T04:08:38.698Z,6.82
2022-08-26T04:11:08.594Z,8.02
2022-08-26T04:13:40.214Z,7.80
2022-08-26T04:16:09.047Z,7.00
2022-08-26T04:18:46.485Z,7.68
2022-08-26T04:21:16.124Z,7.97
2022-08-26T04:23:47.724Z,8.02
2022-08-26T04:26:18.052Z,8.23
2022-08-26T04:28:48.392Z,8.52
2022-08-26T04:31:19.078Z,8.68
2022-08-26T04:33:50.031Z,8.38
2022-08-26T04:36:20.319Z,8.13
2022-08-26T04:38:50.740Z,8.10
2022-08-26T04:41:21.116Z,7.95
2022-08-26T04:43:52.046Z,7.68
2022-08-26T04:46:24.690Z,7.65
2022-08-26T04:48:54.985Z,8.65
2022-08-26T04:51:28.023Z,8.65
2022-08-26T04:53:57.845Z,8.95
2022-08-26T04:56:28.035Z,7.88
2022-08-26T04:58:58.592Z,7.88
2022-08-26T05:01:30.003Z,8.30
2022-08-26T05:03:59.019Z,7.60
2022-08-26T05:06:28.141Z,8.13
2022-08-26T05:08:57.526Z,7.43
2022-08-26T05:11:27.143Z,7.13
2022-08-26T05:14:01.656Z,7.43
2022-08-26T05:16:31.400Z,7.97
2022-08-26T05:19:00.194Z,7.95
2022-08-26T05:21:30.107Z,7.65
2022-08-26T05:23:58.938Z,7.80
2022-08-26T05:26:30.708Z,8.55
2022-08-26T05:29:00.881Z,10.32
2022-08-26T05:31:33.265Z,8.85
2022-08-26T05:34:04.719Z,8.20
2022-08-26T05:36:36.948Z,7.63
2022-08-26T05:39:07.702Z,8.00
2022-08-26T05:41:42.963Z,7.57
2022-08-26T05:44:18.821Z,7.25
2022-08-26T05:46:47.902Z,7.85
2022-08-26T05:49:20.427Z,7.97
2022-08-26T05:51:51.222Z,7.25
2022-08-26T05:54:21.957Z,7.55
2022-08-26T05:56:52.039Z,8.43
2022-08-26T05:59:24.603Z,7.55
2022-08-26T06:01:54.847Z,8.02
2022-08-26T06:04:27.533Z,8.00
2022-08-26T06:06:59.184Z,8.82
2022-08-26T06:09:28.019Z,8.63
2022-08-26T06:11:58.820Z,8.77
2022-08-26T06:14:28.905Z,7.50
2022-08-26T06:16:57.853Z,8.50
2022-08-26T06:19:32.980Z,8.23
2022-08-26T06:22:23.842Z,6.70
2022-08-26T06:25:10.142Z,6.90
2022-08-26T06:27:38.959Z,8.95
2022-08-26T06:30:10.920Z,8.73
2022-08-26T06:32:39.541Z,7.28
2022-08-26T06:35:11.941Z,7.22
2022-08-26T06:37:42.893Z,6.90
2022-08-26T06:40:12.837Z,6.43
2022-08-26T06:42:42.069Z,6.47
2022-08-26T06:45:13.169Z,7.13
2022-08-26T06:47:42.017Z,8.18
2022-08-26T06:50:11.117Z,6.90
2022-08-26T06:52:43.090Z,6.63
2022-08-26T06:55:11.943Z,7.25
2022-08-26T06:57:41.242Z,7.63
2022-08-26T07:00:14.512Z,7.05
2022-08-26T07:02:46.114Z,6.18
2022-08-26T07:05:16.016Z,7.07
2022-08-26T07:07:44.662Z,8.00
2022-08-26T07:10:13.296Z,8.98
2022-08-26T07:12:41.998Z,7.72
2022-08-26T07:15:18.952Z,8.65
2022-08-26T07:17:53.098Z,7.97
2022-08-26T07:20:21.892Z,7.63
2022-08-26T07:22:50.515Z,7.75
2022-08-26T07:25:19.567Z,7.82
2022-08-26T07:27:54.319Z,7.38
2022-08-26T07:30:25.717Z,7.68
2022-08-26T07:32:59.247Z,7.38
2022-08-26T07:35:28.281Z,7.15
2022-08-26T07:37:57.529Z,6.65
2022-08-26T07:40:26.354Z,7.13
2022-08-26T07:42:55.238Z,7.22
2022-08-26T07:45:25.753Z,7.07
2022-08-26T07:47:54.682Z,7.18
2022-08-26T07:50:48.896Z,7.35
2022-08-26T07:53:13.036Z,7.03
2022-08-26T07:55:43.337Z,6.53
2022-08-26T07:58:12.047Z,7.88
2022-08-26T08:00:42.204Z,6.97
2022-08-26T08:03:12.652Z,7.32
2022-08-26T08:05:43.604Z,6.82
2022-08-26T08:08:26.971Z,6.82
2022-08-26T08:10:58.220Z,7.45
2022-08-26T08:13:29.353Z,7.78
2022-08-26T08:15:59.572Z,7.50
2022-08-26T08:18:28.894Z,6.88
2022-08-26T08:21:05.183Z,7.57
2022-08-26T08:23:46.855Z,7.30
2022-08-26T08:26:16.892Z,7.10
2022-08-26T08:28:47.777Z,6.88
2022-08-26T08:31:45.129Z,8.60
2022-08-26T08:34:11.636Z,8.00
2022-08-26T08:36:40.202Z,7.22
2022-08-26T08:39:10.504Z,7.07
2022-08-26T08:41:54.902Z,7.05
2022-08-26T08:47:04.880Z,6.97
2022-08-26T08:49:35.964Z,7.32
2022-08-26T08:52:14.475Z,7.75
2022-08-26T08:54:43.069Z,8.07
2022-08-26T08:57:19.542Z,7.90
2022-08-26T09:00:00.154Z,6.68
2022-08-26T09:02:40.387Z,6.60
2022-08-26T09:05:19.292Z,6.72
2022-08-26T09:07:55.328Z,5.93
2022-08-26T09:10:38.548Z,6.22
2022-08-26T09:13:13.644Z,6.78
2022-08-26T09:16:01.285Z,6.63
2022-08-26T09:18:52.411Z,5.80
2022-08-26T09:21:25.414Z,5.85
2022-08-26T09:23:57.258Z,5.22
2022-08-26T09:26:30.723Z,5.97
2022-08-26T09:29:04.438Z,5.25
2022-08-26T09:31:35.846Z,4.97
2022-08-26T09:34:17.891Z,5.57
2022-08-26T09:36:50.455Z,5.47
2022-08-26T09:39:40.740Z,5.40
2022-08-26T09:42:14.279Z,4.95
2022-08-26T09:44:58.288Z,4.80
2022-08-26T09:47:33.428Z,5.07
2022-08-26T09:50:14.587Z,5.25
2022-08-26T09:52:43.200Z,5.32
2022-08-26T09:55:23.116Z,5.25
2022-08-26T09:57:54.980Z,6.78
2022-08-26T10:00:34.113Z,6.38
2022-08-26T10:03:06.353Z,9.95
2022-08-26T10:05:44.642Z,8.25
2022-08-26T10:08:28.623Z,5.30
2022-08-26T10:11:00.145Z,4.82
2022-08-26T10:13:35.800Z,4.40
2022-08-26T10:16:20.128Z,4.82
2022-08-26T10:19:00.056Z,4.40
2022-08-26T10:21:36.782Z,5.80
2022-08-26T10:24:11.253Z,5.45
2022-08-26T10:26:53.469Z,4.85
2022-08-26T10:29:34.245Z,4.85
2022-08-26T10:32:08.767Z,4.88
2022-08-26T10:34:42.715Z,5.20
2022-08-26T10:37:20.492Z,4.97
2022-08-26T10:40:00.318Z,5.13
2022-08-26T10:42:35.482Z,4.88
2022-08-26T10:45:15.112Z,5.22
2022-08-26T10:47:51.469Z,5.30
2022-08-26T10:50:23.456Z,5.40
2022-08-26T10:53:02.844Z,5.45
2022-08-26T10:55:41.819Z,6.10
2022-08-26T10:58:31.795Z,6.05
2022-08-26T11:01:27.356Z,6.18
2022-08-26T11:04:06.376Z,5.68
2022-08-26T11:06:36.980Z,5.43
2022-08-26T11:09:10.326Z,5.68
2022-08-26T11:12:05.111Z,5.22
2022-08-26T11:14:53.402Z,5.28
2022-08-26T11:18:00.453Z,5.07
2022-08-26T11:20:42.094Z,6.13
2022-08-26T11:23:50.440Z,5.80
2022-08-26T11:26:35.607Z,5.60
2022-08-26T11:29:12.231Z,5.50
2022-08-26T11:31:58.601Z,5.45
2022-08-26T11:34:56.678Z,5.15
2022-08-26T11:37:34.369Z,6.93
2022-08-26T11:40:09.445Z,5.30
2022-08-26T11:42:45.775Z,5.85
2022-08-26T11:45:25.743Z,5.05
2022-08-26T11:47:55.671Z,6.43
2022-08-26T11:50:27.592Z,5.85
2022-08-26T11:53:02.445Z,5.68
2022-08-26T11:55:33.614Z,6.10
2022-08-26T11:58:07.693Z,5.20
2022-08-26T12:00:52.824Z,5.43
2022-08-26T12:03:27.124Z,5.93
2022-08-26T12:05:57.355Z,5.35
2022-08-26T12:08:31.221Z,5.38
2022-08-26T12:11:09.672Z,4.93
2022-08-26T12:13:39.816Z,6.13
2022-08-26T12:16:08.648Z,5.20
2022-08-26T12:18:40.194Z,5.78
2022-08-26T12:21:22.312Z,5.47
2022-08-26T12:23:55.828Z,5.53
2022-08-26T12:26:30.053Z,6.20
2022-08-26T12:29:08.462Z,4.80
2022-08-26T12:31:46.847Z,5.60
2022-08-26T12:34:18.515Z,6.32
2022-08-26T12:36:51.634Z,6.38
2022-08-26T12:39:29.728Z,6.20
2022-08-26T12:42:00.511Z,5.75
2022-08-26T12:44:53.676Z,5.90
2022-08-26T12:47:33.850Z,6.38
2022-08-26T12:50:20.006Z,5.63
2022-08-26T12:53:00.627Z,6.00
2022-08-26T12:55:40.907Z,6.65
2022-08-26T12:58:26.811Z,5.85
2022-08-26T13:01:00.050Z,6.63
2022-08-26T13:03:46.669Z,5.70
2022-08-26T13:06:31.370Z,5.10
2022-08-26T13:09:02.957Z,5.47
2022-08-26T13:11:34.669Z,5.75
2022-08-26T13:14:07.740Z,5.88
2022-08-26T13:16:39.964Z,5.75
2022-08-26T13:19:12.566Z,5.35
2022-08-26T13:21:47.883Z,6.55
2022-08-26T13:24:19.863Z,5.05
2022-08-26T13:26:51.328Z,5.78
2022-08-26T13:29:20.677Z,5.78
2022-08-26T13:31:51.592Z,5.43
2022-08-26T13:34:24.031Z,6.30
2022-08-26T13:36:54.958Z,6.32
2022-08-26T13:39:25.376Z,6.43
2022-08-26T13:41:55.153Z,6.25
2022-08-26T13:44:23.880Z,5.93
2022-08-26T13:46:53.844Z,6.03
2022-08-26T13:49:22.834Z,5.78
2022-08-26T13:51:51.457Z,6.10
2022-08-26T13:54:20.151Z,6.03
2022-08-26T13:56:48.910Z,6.45
2022-08-26T13:59:17.555Z,5.80
2022-08-26T14:01:46.427Z,5.43
2022-08-26T14:04:16.384Z,5.68
2022-08-26T14:06:52.316Z,5.80
2022-08-26T14:09:21.014Z,5.22
2022-08-26T14:11:53.846Z,5.57
2022-08-26T14:14:23.728Z,5.75
2022-08-26T14:16:58.645Z,5.75
2022-08-26T14:19:31.383Z,5.63
2022-08-26T14:22:01.854Z,4.82
2022-08-26T14:24:31.264Z,5.85
2022-08-26T14:26:59.904Z,5.70
2022-08-26T14:29:28.626Z,5.32
2022-08-26T14:31:59.747Z,6.43
2022-08-26T14:34:29.882Z,6.22
2022-08-26T14:36:58.526Z,5.72
2022-08-26T14:39:37.163Z,6.07
2022-08-26T14:42:06.437Z,5.80
2022-08-26T14:44:35.579Z,6.00
2022-08-26T14:47:06.978Z,5.20
2022-08-26T14:49:37.323Z,5.90
2022-08-26T14:52:06.273Z,5.25
2022-08-26T14:54:33.880Z,6.47
2022-08-26T14:57:05.584Z,6.22
2022-08-26T14:59:38.908Z,6.15
2022-08-26T15:02:11.473Z,5.35
2022-08-26T15:04:43.975Z,5.38
2022-08-26T15:07:12.894Z,5.47
2022-08-26T15:09:43.160Z,5.25
2022-08-26T15:12:11.941Z,5.97
2022-08-26T15:14:40.623Z,6.32
2022-08-26T15:17:09.285Z,5.30
2022-08-26T15:19:38.846Z,5.15
2022-08-26T15:22:08.906Z,6.72
2022-08-26T15:24:37.885Z,8.18
2022-08-26T15:27:06.768Z,9.80
2022-08-26T15:29:36.381Z,6.50
2022-08-26T15:32:06.124Z,6.22
2022-08-26T15:34:34.777Z,5.65
2022-08-26T15:37:03.444Z,6.38
2022-08-26T15:39:33.793Z,5.78
2022-08-26T15:42:02.617Z,5.47
2022-08-26T15:44:31.823Z,8.25
2022-08-26T15:47:00.918Z,5.22
2022-08-26T15:49:29.813Z,5.00
2022-08-26T15:51:58.451Z,4.93
2022-08-26T15:54:27.280Z,4.80
2022-08-26T15:56:59.380Z,5.07
2022-08-26T15:59:28.115Z,5.65
2022-08-26T16:01:57.107Z,5.75
2022-08-26T16:04:26.413Z,5.30
2022-08-26T16:06:55.945Z,5.40
2022-08-26T16:09:27.249Z,4.70
2022-08-26T16:11:58.493Z,4.57
2022-08-26T16:14:28.174Z,5.47
2022-08-26T16:16:59.831Z,4.78
2022-08-26T16:19:28.719Z,5.00
2022-08-26T16:21:57.403Z,5.32
2022-08-26T16:24:30.260Z,5.68
2022-08-26T16:27:00.715Z,5.50
2022-08-26T16:29:32.110Z,5.82
2022-08-26T16:32:00.789Z,5.20
2022-08-26T16:34:29.364Z,6.07
2022-08-26T16:36:58.265Z,5.70
2022-08-26T16:39:27.564Z,4.68
2022-08-26T16:41:56.228Z,5.95
2022-08-26T16:44:28.045Z,5.05
2022-08-26T16:46:59.495Z,5.30
2022-08-26T16:49:28.176Z,5.47
2022-08-26T16:51:56.905Z,5.53
2022-08-26T16:54:25.500Z,4.40
2022-08-26T16:56:54.177Z,4.90
2022-08-26T16:59:22.816Z,4.80
2022-08-26T17:01:52.998Z,4.45
2022-08-26T17:04:21.988Z,4.22
2022-08-26T17:06:51.229Z,4.25
2022-08-26T17:09:19.843Z,4.32
2022-08-26T17:11:48.522Z,5.85
2022-08-26T17:14:17.494Z,4.65
2022-08-26T17:16:46.491Z,3.90
2022-08-26T17:19:17.497Z,5.72
2022-08-26T17:21:46.664Z,5.38
2022-08-26T17:24:15.923Z,4.50
2022-08-26T17:26:47.849Z,5.18
2022-08-26T17:29:19.415Z,5.70
2022-08-26T17:31:48.151Z,4.60
2022-08-26T17:34:18.372Z,5.95
2022-08-26T17:36:47.175Z,5.60
2022-08-26T17:39:16.111Z,5.03
2022-08-26T17:41:44.974Z,4.60
2022-08-26T17:44:13.763Z,5.35
2022-08-26T17:46:42.489Z,5.43
2022-08-26T17:49:11.304Z,5.30
2022-08-26T17:51:41.575Z,5.35
2022-08-26T17:54:10.279Z,5.57
2022-08-26T17:56:39.033Z,6.00
2022-08-26T17:59:07.655Z,6.22
2022-08-26T18:01:36.804Z,5.72
2022-08-26T18:04:05.737Z,5.88
2022-08-26T18:06:35.865Z,6.47
2022-08-26T18:09:06.146Z,6.68
2022-08-26T18:11:35.516Z,6.13
2022-08-26T18:14:04.278Z,5.97
2022-08-26T18:16:38.272Z,5.53
2022-08-26T18:19:07.696Z,6.45
2022-08-26T18:21:37.387Z,6.45
2022-08-26T18:24:13.348Z,6.13
2022-08-26T18:26:49.583Z,5.38
2022-08-26T18:29:20.605Z,5.82
2022-08-26T18:31:49.655Z,5.45
2022-08-26T18:34:19.862Z,8.32
2022-08-26T18:36:49.817Z,11.32
2022-08-26T18:39:21.510Z,6.07
2022-08-26T18:41:53.444Z,10.57
2022-08-26T18:44:23.866Z,7.65
2022-08-26T18:46:53.967Z,7.72
2022-08-26T18:49:23.263Z,6.65
2022-08-26T18:51:52.501Z,11.30
2022-08-26T18:54:22.662Z,8.95
2022-08-26T18:56:52.517Z,8.38
2022-08-26T18:59:29.498Z,6.95
2022-08-26T19:01:59.632Z,7.07
2022-08-26T19:04:28.604Z,7.45
2022-08-26T19:06:57.344Z,8.55
2022-08-26T19:09:28.013Z,7.57
2022-08-26T19:11:57.448Z,6.70
2022-08-26T19:14:27.522Z,6.95
2022-08-26T19:16:56.513Z,7.32
2022-08-26T19:19:25.239Z,6.78
2022-08-26T19:21:54.534Z,6.20
2022-08-26T19:24:27.346Z,6.35
2022-08-26T19:27:01.446Z,8.90
2022-08-26T19:29:33.983Z,6.90
2022-08-26T19:32:03.756Z,6.32
2022-08-26T19:34:32.574Z,6.90
2022-08-26T19:37:01.226Z,5.85
2022-08-26T19:39:30.279Z,6.70
2022-08-26T19:42:00.734Z,6.22
2022-08-26T19:44:47.333Z,6.28
2022-08-26T19:47:16.078Z,5.95
2022-08-26T19:49:44.956Z,6.25
2022-08-26T19:52:14.358Z,6.72
2022-08-26T19:54:43.011Z,6.28
2022-08-26T19:57:13.404Z,6.28
2022-08-26T19:59:42.780Z,6.70
2022-08-26T20:02:14.904Z,8.57
2022-08-26T20:04:44.472Z,6.65
2022-08-26T20:07:18.138Z,10.13
2022-08-26T20:09:49.418Z,8.98
2022-08-26T20:12:19.883Z,7.63
2022-08-26T20:14:48.675Z,7.97
2022-08-26T20:17:17.402Z,7.03
2022-08-26T20:20:03.568Z,6.82
2022-08-26T20:22:32.981Z,6.05
2022-08-26T20:25:01.683Z,6.95
2022-08-26T20:27:38.223Z,8.05
2022-08-26T20:30:10.137Z,8.02
2022-08-26T20:32:39.741Z,7.38
2022-08-26T20:35:12.460Z,9.25
2022-08-26T20:37:42.216Z,8.95
2022-08-26T20:40:14.103Z,9.68
2022-08-26T20:42:44.201Z,8.43
2022-08-26T20:45:13.125Z,8.55
2022-08-26T20:47:42.866Z,8.50
2022-08-26T20:50:11.760Z,8.13
2022-08-26T20:52:40.365Z,7.85
2022-08-26T20:55:10.490Z,7.60
2022-08-26T20:57:39.146Z,7.80
2022-08-26T21:00:12.222Z,9.18
2022-08-26T21:02:42.810Z,8.25
2022-08-26T21:05:11.708Z,8.60
2022-08-26T21:07:40.664Z,8.52
2022-08-26T21:10:10.828Z,8.32
2022-08-26T21:12:39.497Z,7.68
2022-08-26T21:15:11.752Z,6.60
2022-08-26T21:17:40.371Z,6.40
2022-08-26T21:20:10.777Z,6.78
2022-08-26T21:22:39.320Z,7.88
2022-08-26T21:25:09.880Z,7.22
2022-08-26T21:27:39.315Z,7.00
2022-08-26T21:30:11.774Z,7.45
2022-08-26T21:32:40.405Z,8.68
2022-08-26T21:35:10.880Z,8.68
2022-08-26T21:37:39.614Z,8.70
2022-08-26T21:40:10.417Z,9.90
2022-08-26T21:42:39.267Z,11.05
2022-08-26T21:45:10.258Z,10.18
2022-08-26T21:47:39.635Z,10.77
2022-08-26T21:50:09.719Z,9.85
2022-08-26T21:52:39.442Z,9.77
2022-08-26T21:55:11.768Z,9.05
2022-08-26T21:57:40.924Z,8.45
2022-08-26T22:00:15.735Z,7.78
2022-08-26T22:02:44.416Z,7.65
2022-08-26T22:05:13.298Z,7.75
2022-08-26T22:07:41.951Z,6.75
2022-08-26T22:10:10.928Z,6.93
2022-08-26T22:12:39.521Z,7.22
2022-08-26T22:15:12.209Z,6.95
2022-08-26T22:17:41.191Z,6.75
2022-08-26T22:20:11.525Z,6.80
2022-08-26T22:22:45.754Z,6.50
2022-08-26T22:25:14.611Z,6.65
2022-08-26T22:27:43.227Z,5.07
2022-08-26T22:30:14.415Z,6.03
2022-08-26T22:32:44.010Z,6.13
2022-08-26T22:35:29.113Z,6.57
2022-08-26T22:37:58.783Z,6.47
2022-08-26T22:40:27.462Z,6.13
2022-08-26T22:43:00.123Z,5.72
2022-08-26T22:45:31.429Z,5.53
2022-08-26T22:48:01.725Z,5.38
2022-08-26T22:50:30.329Z,5.60
2022-08-26T22:52:59.046Z,5.30
2022-08-26T22:55:27.852Z,5.35
2022-08-26T22:57:56.413Z,5.55
2022-08-26T23:00:31.830Z,5.47
2022-08-26T23:03:07.301Z,5.45
2022-08-26T23:05:36.868Z,5.25
2022-08-26T23:08:05.851Z,5.78
2022-08-26T23:10:34.525Z,5.63
2022-08-26T23:13:03.843Z,5.05
2022-08-26T23:15:32.611Z,5.45
2022-08-26T23:18:01.417Z,5.25
2022-08-26T23:20:32.265Z,5.32
2022-08-26T23:23:01.659Z,5.18
2022-08-26T23:25:32.455Z,5.68
2022-08-26T23:28:03.033Z,6.15
2022-08-26T23:30:34.560Z,5.38
2022-08-26T23:33:03.258Z,5.97
2022-08-26T23:35:32.525Z,5.20
2022-08-26T23:38:01.790Z,5.60
2022-08-26T23:40:35.237Z,5.55
2022-08-26T23:43:07.331Z,6.32
2022-08-26T23:45:37.145Z,6.82
2022-08-26T23:48:07.767Z,5.93
2022-08-26T23:50:55.216Z,5.95
2022-08-26T23:53:24.260Z,5.55
2022-08-26T23:55:54.064Z,7.28
2022-08-26T23:58:23.029Z,6.32
